Time;durP1;ratioP1;P1;durP2;ratioP2;P2;SDS_P1;SDS_P2;PMS_P1;PMS_P2;Temp;Humidity;BMP_temperature;BMP_pressure;BME280_temperature;BME280_humidity;BME280_pressure;Samples;Min_cycle;Max_cycle;Signal;HPM_P1;HPM_P2
2022/07/09 00:00:31;;;;;;;5.50;1.80;;;;;;;14.85;68.87;100585.85;105903;1279;108997;-77
2022/07/09 00:03:10;;;;;;;5.00;2.00;;;;;;;14.89;68.71;100585.14;105884;1279;97837;-76
2022/07/09 00:05:42;;;;;;;4.20;1.70;;;;;;;14.94;68.63;100585.83;107286;1279;95987;-76
2022/07/09 00:08:15;;;;;;;2.60;1.50;;;;;;;14.98;68.72;100584.73;106379;1279;140864;-77
2022/07/09 00:10:47;;;;;;;3.80;1.80;;;;;;;15.04;68.55;100588.50;105887;1279;108766;-76
2022/07/09 00:13:19;;;;;;;7.70;2.10;;;;;;;15.08;68.49;100589.90;105732;1279;138806;-76
2022/07/09 00:15:53;;;;;;;4.40;2.00;;;;;;;15.10;68.49;100591.17;107309;1279;96195;-77
2022/07/09 00:18:25;;;;;;;7.10;2.40;;;;;;;15.11;68.53;100599.91;107305;1277;96000;-77
2022/07/09 00:20:58;;;;;;;6.80;2.20;;;;;;;15.11;68.56;100596.08;106732;1279;138390;-77
2022/07/09 00:23:30;;;;;;;5.60;2.30;;;;;;;15.14;68.69;100597.35;105697;1279;106529;-77
2022/07/09 00:26:03;;;;;;;5.30;3.00;;;;;;;15.18;68.69;100593.81;105610;1279;138869;-77
2022/07/09 00:28:35;;;;;;;4.10;2.20;;;;;;;15.20;68.84;100590.73;105733;1279;97850;-77
2022/07/09 00:31:07;;;;;;;7.90;2.30;;;;;;;15.23;69.05;100597.61;105687;1279;139727;-77
2022/07/09 00:33:40;;;;;;;5.80;2.30;;;;;;;15.23;69.15;100596.36;105937;1279;111439;-77
2022/07/09 00:36:12;;;;;;;11.10;2.80;;;;;;;15.24;69.32;100589.53;105890;1279;108912;-77
2022/07/09 00:38:45;;;;;;;3.20;2.50;;;;;;;15.24;69.55;100586.86;105675;1279;138890;-76
2022/07/09 00:41:17;;;;;;;4.00;2.70;;;;;;;15.27;69.95;100589.02;105732;1279;97840;-76
2022/07/09 00:43:52;;;;;;;4.50;2.50;;;;;;;15.29;70.17;100590.67;105678;1279;138645;-76
2022/07/09 00:46:25;;;;;;;9.90;2.70;;;;;;;15.30;70.33;100589.05;105767;1279;112012;-76
2022/07/09 00:49:03;;;;;;;5.00;2.50;;;;;;;15.30;70.46;100585.92;105741;1279;138877;-76
2022/07/09 00:51:36;;;;;;;3.50;2.50;;;;;;;15.31;70.52;100586.23;105939;1279;108922;-76
2022/07/09 00:54:08;;;;;;;6.60;2.60;;;;;;;15.32;70.77;100585.46;105813;1279;97834;-76
2022/07/09 00:56:41;;;;;;;6.00;2.70;;;;;;;15.34;70.83;100582.39;105782;1279;138572;-77
2022/07/09 00:59:14;;;;;;;5.60;2.80;;;;;;;15.36;70.91;100579.84;105907;1279;112553;-77
2022/07/09 01:01:46;;;;;;;11.10;3.20;;;;;;;15.35;71.08;100575.33;107204;1279;140604;-77
2022/07/09 01:04:19;;;;;;;7.70;3.00;;;;;;;15.36;71.09;100574.59;105952;1279;108823;-76
2022/07/09 01:06:52;;;;;;;8.10;3.10;;;;;;;15.36;71.28;100573.69;107196;1279;139305;-76
2022/07/09 01:09:25;;;;;;;4.20;2.60;;;;;;;15.37;71.36;100571.04;105898;1279;97932;-77
2022/07/09 01:11:58;;;;;;;6.90;2.90;;;;;;;15.37;71.54;100571.38;107357;1278;110402;-77
2022/07/09 01:14:30;;;;;;;8.90;3.20;;;;;;;15.36;71.64;100572.68;106143;1279;139222;-77
2022/07/09 01:17:05;;;;;;;7.20;3.20;;;;;;;15.35;71.78;100571.31;105920;1279;108906;-77
2022/07/09 01:19:38;;;;;;;8.40;3.20;;;;;;;15.34;71.80;100569.96;106720;1279;138697;-77
2022/07/09 01:22:11;;;;;;;6.70;2.80;;;;;;;15.33;71.94;100567.90;105954;1279;97854;-77
2022/07/09 01:24:43;;;;;;;8.10;3.20;;;;;;;15.32;71.97;100566.18;105696;1279;139115;-78
2022/07/09 01:27:15;;;;;;;7.10;3.00;;;;;;;15.32;71.97;100562.50;105752;1279;107824;-77
2022/07/09 01:29:49;;;;;;;4.60;2.90;;;;;;;15.31;71.89;100562.38;105735;1279;108729;-76
2022/07/09 01:32:22;;;;;;;10.70;3.30;;;;;;;15.29;71.99;100559.31;105805;1279;138904;-78
2022/07/09 01:34:54;;;;;;;5.10;2.80;;;;;;;15.27;72.04;100559.63;105784;1279;97731;-78
2022/07/09 01:37:26;;;;;;;5.40;2.80;;;;;;;15.24;72.07;100561.46;105736;1279;138676;-76
2022/07/09 01:39:59;;;;;;;6.50;3.10;;;;;;;15.21;72.12;100561.27;105931;1279;108575;-76
2022/07/09 01:42:31;;;;;;;10.60;3.10;;;;;;;15.19;72.16;100561.20;105872;1279;108500;-77
2022/07/09 01:45:05;;;;;;;6.50;2.70;;;;;;;15.17;72.19;100556.92;105881;1279;97856;-77
2022/07/09 01:47:37;;;;;;;6.20;3.30;;;;;;;15.15;72.23;100552.14;107342;1279;96040;-77
2022/07/09 01:50:10;;;;;;;7.20;3.10;;;;;;;15.10;72.19;100554.06;107242;1278;138731;-77
2022/07/09 01:52:43;;;;;;;8.20;3.10;;;;;;;15.06;72.23;100554.76;106148;1279;108791;-77
2022/07/09 01:55:15;;;;;;;9.90;3.10;;;;;;;15.02;72.14;100556.52;105768;1279;138991;-76
2022/07/09 01:57:47;;;;;;;5.90;3.10;;;;;;;14.99;72.06;100556.66;105894;1279;97835;-76
2022/07/09 02:00:20;;;;;;;7.80;3.10;;;;;;;14.94;71.96;100555.67;107307;1279;96102;-77
2022/07/09 02:02:52;;;;;;;7.30;3.00;;;;;;;14.92;72.00;100556.14;107245;1278;139860;-77
2022/07/09 02:05:25;;;;;;;6.30;2.40;;;;;;;14.89;71.95;100561.67;107018;1279;107906;-77
2022/07/09 02:07:57;;;;;;;7.50;2.80;;;;;;;14.86;71.93;100560.95;105733;1279;138761;-77
2022/07/09 02:10:30;;;;;;;5.70;2.90;;;;;;;14.84;71.93;100558.05;105813;1279;97888;-77
2022/07/09 02:13:02;;;;;;;7.10;3.10;;;;;;;14.83;71.98;100558.64;105820;1279;139601;-77
2022/07/09 02:15:35;;;;;;;10.10;3.20;;;;;;;14.81;71.83;100557.50;107198;1279;112605;-76
2022/07/09 02:18:07;;;;;;;6.60;2.90;;;;;;;14.79;71.89;100555.15;107281;1279;107273;-77
2022/07/09 02:20:40;;;;;;;8.90;3.00;;;;;;;14.78;71.97;100550.98;105729;1279;138773;-76
2022/07/09 02:23:13;;;;;;;11.80;3.30;;;;;;;14.77;71.97;100548.75;105900;1279;97920;-77
2022/07/09 02:25:45;;;;;;;6.10;3.00;;;;;;;14.75;71.74;100548.87;105833;1279;138918;-78
2022/07/09 02:28:17;;;;;;;8.60;2.90;;;;;;;14.72;71.89;100546.00;105886;1279;112722;-76
2022/07/09 02:30:50;;;;;;;6.20;2.40;;;;;;;14.68;71.97;100544.58;105814;1278;138914;-75
2022/07/09 02:33:22;;;;;;;8.10;3.50;;;;;;;14.65;71.97;100543.19;105894;1280;108981;-77
2022/07/09 02:36:02;;;;;;;10.10;3.20;;;;;;;14.61;72.06;100540.56;105998;1279;97850;-76
2022/07/09 02:38:35;;;;;;;5.60;2.70;;;;;;;14.58;72.28;100540.50;105739;1279;138912;-76
2022/07/09 02:41:08;;;;;;;8.10;2.70;;;;;;;14.55;72.29;100539.04;107222;1279;113792;-77
2022/07/09 02:43:42;;;;;;;8.10;3.10;;;;;;;14.54;72.34;100540.34;107052;1279;138832;-77
2022/07/09 02:46:15;;;;;;;8.20;2.80;;;;;;;14.53;72.41;100544.56;105834;1279;108944;-77
2022/07/09 02:48:48;;;;;;;5.80;2.60;;;;;;;14.51;72.53;100544.80;107228;1278;139003;-76
2022/07/09 02:51:20;;;;;;;7.80;3.30;;;;;;;14.49;72.49;100542.98;106135;1279;97811;-76
2022/07/09 02:53:53;;;;;;;9.90;3.10;;;;;;;14.47;72.63;100540.09;105896;1279;112641;-76
2022/07/09 02:56:25;;;;;;;7.40;3.00;;;;;;;14.44;72.60;100543.70;106620;1279;140383;-77
2022/07/09 02:58:58;;;;;;;7.90;2.90;;;;;;;14.42;72.63;100542.18;105816;1279;108842;-77
2022/07/09 03:01:31;;;;;;;7.50;3.00;;;;;;;14.40;72.71;100546.65;107187;1279;140660;-77
2022/07/09 03:04:04;;;;;;;5.90;3.00;;;;;;;14.37;72.85;100547.66;106694;1279;97949;-77
2022/07/09 03:06:37;;;;;;;10.60;3.20;;;;;;;14.35;72.84;100540.22;105691;1279;138820;-77
2022/07/09 03:09:09;;;;;;;9.20;2.90;;;;;;;14.32;72.83;100533.34;105889;1279;108798;-77
2022/07/09 03:11:41;;;;;;;8.10;3.30;;;;;;;14.30;72.95;100530.65;107299;1279;107212;-77
2022/07/09 03:14:14;;;;;;;6.70;2.80;;;;;;;14.28;72.85;100530.91;107133;1279;138771;-77
2022/07/09 03:16:46;;;;;;;7.00;3.10;;;;;;;14.27;73.03;100529.05;106314;1279;97866;-77
2022/07/09 03:19:19;;;;;;;7.30;3.30;;;;;;;14.27;73.00;100531.13;107175;1279;138697;-77
2022/07/09 03:21:51;;;;;;;7.70;2.80;;;;;;;14.28;73.27;100529.52;107282;1279;108822;-77
2022/07/09 03:24:25;;;;;;;8.00;3.10;;;;;;;14.29;73.20;100530.01;106140;1279;107791;-77
2022/07/09 03:26:57;;;;;;;6.00;3.30;;;;;;;14.31;73.10;100528.36;107187;1279;138655;-76
2022/07/09 03:29:29;;;;;;;8.10;3.10;;;;;;;14.33;73.09;100527.21;106140;1279;97926;-76
2022/07/09 03:32:03;;;;;;;7.40;2.80;;;;;;;14.35;73.07;100523.80;106820;1278;138728;-77
2022/07/09 03:34:36;;;;;;;9.90;3.30;;;;;;;14.35;72.93;100521.52;105913;1279;108967;-76
2022/07/09 03:37:09;;;;;;;9.00;3.20;;;;;;;14.35;72.98;100523.06;105781;1279;139003;-77
2022/07/09 03:39:41;;;;;;;6.90;2.90;;;;;;;14.35;72.94;100531.66;105808;1279;98570;-76
2022/07/09 03:42:14;;;;;;;5.20;2.90;;;;;;;14.33;72.91;100535.74;105913;1279;97738;-77
2022/07/09 03:44:47;;;;;;;8.30;3.30;;;;;;;14.33;72.97;100538.03;107188;1278;138980;-77
2022/07/09 03:47:19;;;;;;;6.20;3.20;;;;;;;14.33;72.95;100538.58;107323;1279;108931;-77
2022/07/09 03:49:51;;;;;;;7.60;3.70;;;;;;;14.32;72.95;100529.52;107063;1279;139408;-77
2022/07/09 03:52:24;;;;;;;9.90;3.80;;;;;;;14.30;72.91;100525.77;107167;1279;96081;-77
2022/07/09 03:54:56;;;;;;;7.10;3.10;;;;;;;14.28;72.94;100532.49;107177;1279;138773;-77
2022/07/09 03:57:28;;;;;;;8.30;3.70;;;;;;;14.28;72.80;100526.38;106635;1279;112374;-77
2022/07/09 04:00:01;;;;;;;10.00;3.40;;;;;;;14.31;73.00;100525.54;107070;1279;109827;-77
2022/07/09 04:02:43;;;;;;;10.30;3.30;;;;;;;14.34;72.87;100527.34;105757;1279;139115;-76
2022/07/09 04:05:15;;;;;;;8.00;3.10;;;;;;;14.37;72.99;100522.34;106683;1279;95863;-77
2022/07/09 04:07:47;;;;;;;5.50;2.90;;;;;;;14.41;73.00;100518.83;105978;1279;138698;-77
2022/07/09 04:10:20;;;;;;;5.20;3.00;;;;;;;14.46;72.86;100521.05;105773;1279;111185;-77
2022/07/09 04:12:52;;;;;;;8.70;3.40;;;;;;;14.53;72.90;100520.77;105667;1279;139101;-76
2022/07/09 04:15:24;;;;;;;7.00;2.70;;;;;;;14.59;72.72;100518.77;105850;1279;108917;-77
2022/07/09 04:17:56;;;;;;;9.80;3.00;;;;;;;14.63;72.58;100519.80;105909;1278;97866;-78
2022/07/09 04:20:29;;;;;;;4.00;2.70;;;;;;;14.68;72.71;100520.29;106505;1279;138530;-78
2022/07/09 04:23:02;;;;;;;7.50;3.40;;;;;;;14.72;72.54;100523.94;106335;1279;111781;-78
2022/07/09 04:25:34;;;;;;;8.70;3.90;;;;;;;14.78;72.51;100522.46;105809;1279;139057;-77
2022/07/09 04:28:06;;;;;;;7.40;3.20;;;;;;;14.83;72.37;100517.84;107204;1279;108528;-77
2022/07/09 04:30:39;;;;;;;8.50;3.00;;;;;;;14.87;72.24;100517.63;107160;1279;139858;-77
2022/07/09 04:33:11;;;;;;;5.60;3.20;;;;;;;14.93;72.18;100510.05;106256;1279;96439;-77
2022/07/09 04:35:43;;;;;;;5.50;3.00;;;;;;;14.98;72.08;100511.02;105813;1279;112558;-77
2022/07/09 04:38:15;;;;;;;9.70;3.40;;;;;;;15.02;71.94;100509.07;105697;1279;138722;-77
2022/07/09 04:40:48;;;;;;;12.80;3.60;;;;;;;15.06;71.94;100506.41;105898;1279;108691;-78
2022/07/09 04:43:20;;;;;;;8.10;3.50;;;;;;;15.11;71.76;100505.86;106912;1279;138870;-76
2022/07/09 04:45:52;;;;;;;7.60;3.60;;;;;;;15.16;71.78;100509.32;106706;1279;97846;-76
2022/07/09 04:48:25;;;;;;;7.80;3.70;;;;;;;15.26;71.91;100508.14;105889;1280;112265;-77
2022/07/09 04:50:58;;;;;;;8.30;4.00;;;;;;;15.37;71.62;100515.14;106044;1278;140278;-77
2022/07/09 04:53:30;;;;;;;10.20;3.80;;;;;;;15.47;71.46;100511.52;107317;1279;109559;-76
2022/07/09 04:56:03;;;;;;;7.50;3.90;;;;;;;15.60;71.33;100512.45;105874;1281;139672;-77
2022/07/09 04:58:36;;;;;;;12.10;4.30;;;;;;;15.75;71.05;100520.17;107326;1278;96226;-77
2022/07/09 05:01:09;;;;;;;8.90;3.90;;;;;;;15.89;70.77;100517.73;107177;1279;140047;-78
2022/07/09 05:03:41;;;;;;;6.40;3.40;;;;;;;16.07;70.56;100521.06;106133;1279;108886;-77
2022/07/09 05:06:14;;;;;;;6.60;4.00;;;;;;;16.28;70.31;100511.51;105879;1280;108922;-79
2022/07/09 05:08:47;;;;;;;8.70;3.50;;;;;;;16.47;69.73;100514.04;105870;1279;138697;-78
2022/07/09 05:11:20;;;;;;;7.10;3.50;;;;;;;16.64;69.22;100510.70;107303;1279;96128;-76
2022/07/09 05:13:52;;;;;;;7.50;3.50;;;;;;;16.75;68.89;100508.20;105939;1279;138645;-78
2022/07/09 05:16:24;;;;;;;9.40;4.60;;;;;;;16.81;68.57;100510.86;105865;1281;107930;-76
2022/07/09 05:18:56;;;;;;;9.60;3.60;;;;;;;16.89;68.45;100513.95;105758;1279;138976;-77
2022/07/09 05:21:29;;;;;;;7.80;3.70;;;;;;;17.01;68.33;100511.55;105871;1281;97954;-77
2022/07/09 05:24:02;;;;;;;7.20;3.40;;;;;;;17.14;67.98;100509.06;107315;1278;96487;-77
2022/07/09 05:26:35;;;;;;;12.10;3.70;;;;;;;17.25;67.70;100512.52;107213;1279;139246;-77
2022/07/09 05:29:08;;;;;;;5.90;3.20;;;;;;;17.36;67.16;100509.23;106428;1279;108691;-78
2022/07/09 05:31:40;;;;;;;5.10;3.30;;;;;;;17.44;66.99;100508.08;107202;1278;138746;-77
2022/07/09 05:34:13;;;;;;;6.60;3.30;;;;;;;17.52;66.79;100509.95;106542;1279;97852;-75
2022/07/09 05:36:45;;;;;;;6.50;3.20;;;;;;;17.81;66.79;100507.25;105752;1281;139089;-76
2022/07/09 05:39:18;;;;;;;7.90;3.10;;;;;;;18.10;66.32;100505.02;105922;1281;112911;-77
2022/07/09 05:41:50;;;;;;;7.90;3.30;;;;;;;18.37;66.00;100500.76;105904;1281;108786;-77
2022/07/09 05:44:23;;;;;;;4.60;2.50;;;;;;;18.58;65.36;100502.11;105630;1281;139129;-77
2022/07/09 05:46:56;;;;;;;4.90;2.50;;;;;;;18.87;64.82;100496.96;105603;1281;97745;-78
2022/07/09 05:49:29;;;;;;;4.80;2.10;;;;;;;19.18;64.13;100495.70;105610;1279;138695;-77
2022/07/09 05:52:02;;;;;;;6.60;2.40;;;;;;;19.45;63.34;100497.32;105592;1281;112518;-77
2022/07/09 05:54:36;;;;;;;6.80;2.80;;;;;;;19.84;63.04;100490.34;106045;1280;138199;-77
2022/07/09 05:57:09;;;;;;;4.00;2.20;;;;;;;20.40;62.02;100489.40;105845;1281;108805;-76
2022/07/09 05:59:42;;;;;;;7.60;1.90;;;;;;;20.78;60.69;100486.54;106274;1281;97993;-76
2022/07/09 06:02:14;;;;;;;5.30;2.40;;;;;;;21.41;59.94;100486.61;105776;1281;137967;-75
2022/07/09 06:04:46;;;;;;;8.60;2.10;;;;;;;21.69;58.92;100482.24;107283;1279;111725;-75
2022/07/09 06:07:20;;;;;;;5.50;2.20;;;;;;;21.80;58.33;100485.12;106052;1279;139041;-76
2022/07/09 06:09:57;;;;;;;6.20;2.10;;;;;;;21.66;57.52;100478.57;107046;1279;109117;-77
2022/07/09 06:12:30;;;;;;;3.30;2.00;;;;;;;21.28;57.85;100481.89;105880;1280;98366;-77
2022/07/09 06:15:02;;;;;;;4.80;1.80;;;;;;;21.03;58.05;100482.09;105944;1279;97859;-77
2022/07/09 06:17:34;;;;;;;5.10;2.00;;;;;;;20.92;58.01;100473.51;105926;1281;112354;-77
2022/07/09 06:20:09;;;;;;;4.20;2.30;;;;;;;20.80;58.15;100472.63;105826;1281;138169;-76
2022/07/09 06:22:41;;;;;;;5.00;2.40;;;;;;;20.66;58.21;100471.88;106863;1279;107765;-76
2022/07/09 06:25:14;;;;;;;5.60;2.40;;;;;;;20.39;58.23;100469.33;105772;1281;138560;-74
2022/07/09 06:27:47;;;;;;;4.70;3.00;;;;;;;20.14;58.49;100472.58;107235;1279;95780;-76
2022/07/09 06:30:19;;;;;;;4.50;3.30;;;;;;;19.94;58.81;100477.52;107203;1281;112506;-76
2022/07/09 06:32:51;;;;;;;9.90;3.60;;;;;;;19.65;58.99;100475.20;105953;1279;137867;-76
2022/07/09 06:35:24;;;;;;;6.90;3.50;;;;;;;19.36;59.43;100475.15;105878;1281;108418;-76
2022/07/09 06:37:56;;;;;;;6.20;3.20;;;;;;;19.15;60.17;100478.81;105721;1279;138319;-76
2022/07/09 06:40:29;;;;;;;4.30;3.10;;;;;;;18.99;60.43;100477.18;105838;1281;98380;-78
2022/07/09 06:43:03;;;;;;;6.30;3.50;;;;;;;18.84;60.75;100472.15;105768;1279;138190;-76
2022/07/09 06:45:43;;;;;;;4.10;3.30;;;;;;;18.70;60.86;100472.17;107235;1278;108920;-77
2022/07/09 06:48:15;;;;;;;5.50;3.70;;;;;;;18.61;61.06;100472.66;107235;1279;108659;-77
2022/07/09 06:50:48;;;;;;;8.30;3.50;;;;;;;18.60;61.45;100469.90;107190;1279;138545;-77
2022/07/09 06:53:20;;;;;;;4.60;3.90;;;;;;;18.60;61.59;100468.83;107326;1279;96053;-76
2022/07/09 06:55:52;;;;;;;4.50;3.30;;;;;;;18.63;61.45;100468.67;107183;1278;140238;-76
2022/07/09 06:58:24;;;;;;;6.10;3.70;;;;;;;18.59;61.58;100464.89;106122;1281;109020;-77
2022/07/09 07:00:57;;;;;;;7.90;3.60;;;;;;;18.67;61.82;100459.65;105860;1279;139332;-77
2022/07/09 07:03:29;;;;;;;7.20;3.50;;;;;;;18.80;61.81;100458.31;106602;1279;97886;-77
2022/07/09 07:06:02;;;;;;;3.80;2.50;;;;;;;19.05;61.66;100455.63;106427;1279;96552;-77
2022/07/09 07:08:34;;;;;;;4.30;2.90;;;;;;;19.33;61.50;100451.20;105749;1281;138687;-77
2022/07/09 07:11:07;;;;;;;5.50;2.90;;;;;;;19.60;61.37;100449.27;106786;1279;108381;-77
2022/07/09 07:13:40;;;;;;;3.80;2.30;;;;;;;19.97;60.67;100444.12;106669;1279;139089;-77
2022/07/09 07:16:12;;;;;;;5.60;2.30;;;;;;;20.49;60.40;100444.43;105795;1281;97931;-76
2022/07/09 07:18:45;;;;;;;3.20;2.20;;;;;;;21.46;59.19;100440.23;107184;1279;137990;-77
2022/07/09 07:21:17;;;;;;;5.70;2.20;;;;;;;22.19;57.27;100435.63;107056;1279;112432;-76
2022/07/09 07:23:50;;;;;;;2.40;1.60;;;;;;;23.06;55.95;100433.09;106428;1278;106470;-76
2022/07/09 07:26:22;;;;;;;3.50;1.70;;;;;;;24.01;53.81;100428.94;106159;1279;138117;-75
2022/07/09 07:28:55;;;;;;;3.80;1.50;;;;;;;24.24;52.47;100431.40;106399;1279;97839;-77
2022/07/09 07:31:27;;;;;;;3.10;1.60;;;;;;;24.35;52.04;100429.91;107114;1279;138251;-76
2022/07/09 07:34:00;;;;;;;3.40;1.50;;;;;;;24.84;51.71;100424.00;106143;1279;111309;-76
2022/07/09 07:36:34;;;;;;;3.30;1.40;;;;;;;25.61;50.18;100419.31;106395;1279;109222;-76
2022/07/09 07:39:06;;;;;;;5.00;1.60;;;;;;;25.65;48.82;100415.45;105822;1281;108737;-76
2022/07/09 07:41:40;;;;;;;3.20;1.40;;;;;;;25.67;48.43;100417.35;106339;1279;97839;-76
2022/07/09 07:44:12;;;;;;;4.90;2.00;;;;;;;25.81;48.41;100416.65;106565;1279;139726;-76
2022/07/09 07:46:44;;;;;;;3.70;2.10;;;;;;;26.21;47.87;100415.89;105997;1278;112698;-77
2022/07/09 07:49:17;;;;;;;2.90;1.20;;;;;;;26.40;47.20;100412.96;106452;1279;139169;-77
2022/07/09 07:51:50;;;;;;;3.80;1.70;;;;;;;26.81;46.40;100413.98;105908;1279;109127;-77
2022/07/09 07:54:22;;;;;;;2.80;1.30;;;;;;;27.32;45.73;100405.61;106603;1279;96761;-77
2022/07/09 07:56:54;;;;;;;2.50;1.30;;;;;;;27.44;45.23;100401.90;106567;1279;137734;-77
2022/07/09 07:59:27;;;;;;;2.80;1.40;;;;;;;27.95;44.40;100397.19;107045;1279;111448;-78
2022/07/09 08:01:59;;;;;;;2.50;1.20;;;;;;;29.43;43.10;100393.35;106371;1278;138244;-79
2022/07/09 08:04:31;;;;;;;2.70;1.00;;;;;;;30.66;41.27;100391.98;107223;1279;106996;-78
2022/07/09 08:07:04;;;;;;;2.60;1.30;;;;;;;31.12;39.67;100386.89;107147;1279;138261;-78
2022/07/09 08:09:36;;;;;;;5.00;1.40;;;;;;;31.29;38.08;100382.51;107292;1279;96234;-78
2022/07/09 08:12:10;;;;;;;3.30;1.30;;;;;;;31.14;37.64;100386.77;107257;1279;112374;-78
2022/07/09 08:14:43;;;;;;;6.50;2.60;;;;;;;31.70;37.59;100382.88;105679;1279;138275;-77
2022/07/09 08:17:16;;;;;;;3.30;1.20;;;;;;;32.03;36.78;100380.67;106002;1278;108741;-77
2022/07/09 08:19:48;;;;;;;3.00;1.60;;;;;;;31.43;36.11;100386.63;105735;1280;138171;-77
2022/07/09 08:22:21;;;;;;;2.10;0.90;;;;;;;31.37;36.34;100382.51;105868;1279;97861;-77
2022/07/09 08:24:53;;;;;;;4.10;1.20;;;;;;;32.13;36.32;100379.91;106858;1279;138889;-77
2022/07/09 08:27:25;;;;;;;5.20;1.30;;;;;;;32.82;35.14;100377.20;106144;1279;107753;-77
2022/07/09 08:29:58;;;;;;;3.90;1.60;;;;;;;32.46;34.55;100372.64;105906;1279;109359;-76
2022/07/09 08:32:30;;;;;;;4.40;1.80;;;;;;;31.53;34.52;100369.67;105786;1279;139208;-77
2022/07/09 08:35:03;;;;;;;7.50;1.20;;;;;;;31.25;34.98;100367.21;105859;1279;97947;-76
2022/07/09 08:37:36;;;;;;;2.10;1.10;;;;;;;31.09;34.74;100368.82;105723;1279;137965;-76
2022/07/09 08:40:11;;;;;;;1.80;0.90;;;;;;;31.57;34.33;100363.64;105968;1279;108931;-77
2022/07/09 08:42:44;;;;;;;1.80;0.80;;;;;;;31.91;33.66;100363.48;105887;1279;138283;-76
2022/07/09 08:45:19;;;;;;;4.60;1.10;;;;;;;31.25;33.46;100370.80;106262;1279;97823;-77
2022/07/09 08:47:53;;;;;;;3.70;0.90;;;;;;;30.38;33.59;100363.98;106224;1279;97851;-77
2022/07/09 08:50:25;;;;;;;5.00;1.30;;;;;;;30.08;34.09;100358.23;105751;1279;138280;-77
2022/07/09 08:52:59;;;;;;;2.80;1.00;;;;;;;30.23;33.60;100355.04;105805;1279;107662;-77
2022/07/09 08:55:32;;;;;;;2.30;0.90;;;;;;;30.40;33.61;100356.59;105747;1279;138251;-77
2022/07/09 08:58:05;;;;;;;3.30;1.10;;;;;;;30.92;33.67;100356.48;105947;1279;97926;-77
2022/07/09 09:00:37;;;;;;;4.00;0.90;;;;;;;31.38;33.03;100348.28;105837;1279;138057;-75
2022/07/09 09:03:10;;;;;;;1.80;1.00;;;;;;;31.37;32.82;100345.45;105889;1279;112059;-76
2022/07/09 09:05:42;;;;;;;3.80;1.10;;;;;;;30.95;32.58;100352.24;106183;1279;108740;-78
2022/07/09 09:08:23;;;;;;;2.50;1.00;;;;;;;31.04;33.23;100347.36;106817;1279;138766;-77
2022/07/09 09:10:55;;;;;;;4.00;0.80;;;;;;;31.68;33.32;100342.27;106381;1279;97884;-77
2022/07/09 09:13:27;;;;;;;3.90;1.10;;;;;;;32.27;32.73;100340.91;105754;1279;138082;-78
2022/07/09 09:16:08;;;;;;;3.10;1.20;;;;;;;32.53;32.26;100332.13;105979;1279;112620;-77
2022/07/09 09:18:43;;;;;;;1.80;0.80;;;;;;;32.57;31.40;100328.92;107164;1279;138646;-78
2022/07/09 09:21:17;;;;;;;3.00;1.20;;;;;;;32.44;31.27;100329.92;107217;1279;108056;-78
2022/07/09 09:23:52;;;;;;;5.00;1.10;;;;;;;31.91;31.07;100324.86;106822;1279;96539;-77
2022/07/09 09:26:25;;;;;;;6.80;1.30;;;;;;;31.38;30.53;100322.00;105815;1279;137901;-77
2022/07/09 09:29:00;;;;;;;2.70;1.00;;;;;;;31.22;30.87;100324.58;105794;1279;111738;-77
2022/07/09 09:31:34;;;;;;;3.70;1.10;;;;;;;31.20;30.83;100321.46;106527;1279;138088;-77
2022/07/09 09:34:16;;;;;;;3.90;1.20;;;;;;;30.61;30.85;100320.39;107179;1279;109130;-78
2022/07/09 09:36:50;;;;;;;2.20;1.00;;;;;;;30.16;31.03;100321.46;107163;1278;139727;-77
2022/07/09 09:39:24;;;;;;;3.80;1.40;;;;;;;29.64;31.10;100326.95;106345;1279;97810;-79
2022/07/09 09:41:59;;;;;;;5.80;1.30;;;;;;;29.12;31.75;100326.21;105790;1279;112521;-78
2022/07/09 09:44:37;;;;;;;4.10;1.30;;;;;;;28.75;32.70;100326.08;105701;1279;138289;-78
2022/07/09 09:47:10;;;;;;;3.10;1.40;;;;;;;28.94;33.00;100323.31;107294;1277;108790;-78
2022/07/09 09:49:43;;;;;;;3.90;1.30;;;;;;;29.22;32.75;100320.81;106715;1276;286113;-77
2022/07/09 09:52:19;;;;;;;4.30;1.30;;;;;;;29.55;32.02;100315.11;105867;1279;97718;-77
2022/07/09 09:54:54;;;;;;;2.80;1.10;;;;;;;29.75;32.55;100311.52;105800;1279;138956;-77
2022/07/09 09:57:27;;;;;;;4.50;1.20;;;;;;;30.25;32.34;100308.39;107312;1278;108879;-78
2022/07/09 10:00:00;;;;;;;5.40;1.40;;;;;;;30.51;31.74;100312.63;106233;1279;108820;-77
2022/07/09 10:02:45;;;;;;;4.40;1.20;;;;;;;30.50;31.74;100305.30;107162;1277;138786;-78
2022/07/09 10:05:18;;;;;;;7.20;1.40;;;;;;;30.29;31.53;100299.70;107149;1279;96327;-78
2022/07/09 10:07:50;;;;;;;3.50;1.20;;;;;;;30.00;31.58;100299.27;105747;1279;138431;-78
2022/07/09 10:10:24;;;;;;;4.90;1.40;;;;;;;29.91;31.65;100287.16;105861;1279;108284;-77
2022/07/09 10:12:56;;;;;;;4.80;1.50;;;;;;;30.14;32.12;100286.20;105946;1279;138395;-77
2022/07/09 10:15:34;;;;;;;3.10;1.50;;;;;;;30.35;31.49;100281.02;107301;1279;96114;-77
2022/07/09 10:18:17;;;;;;;4.10;1.20;;;;;;;30.52;31.55;100278.07;107291;1279;95801;-77
2022/07/09 10:20:55;;;;;;;3.40;1.10;;;;;;;30.73;31.80;100278.16;107216;1279;138123;-77
2022/07/09 10:23:28;;;;;;;3.30;1.40;;;;;;;30.90;31.03;100275.52;107279;1278;107663;-77
2022/07/09 10:26:00;;;;;;;15.40;1.40;;;;;;;31.13;30.34;100266.95;106228;1279;138192;-77
2022/07/09 10:28:42;;;;;;;3.10;1.40;;;;;;;31.18;29.44;100259.48;105891;1279;97900;-76
2022/07/09 10:31:23;;;;;;;4.10;1.10;;;;;;;31.21;29.11;100261.23;105752;1279;138319;-77
2022/07/09 10:34:09;;;;;;;4.10;1.20;;;;;;;31.13;29.29;100257.56;107285;1279;112646;-78
2022/07/09 10:36:56;;;;;;;3.60;1.20;;;;;;;30.75;28.78;100253.48;105966;1279;138978;-77
2022/07/09 10:39:29;;;;;;;3.20;1.20;;;;;;;30.37;29.03;100255.05;107213;1278;108704;-78
2022/07/09 10:42:07;;;;;;;3.00;1.10;;;;;;;30.15;28.43;100258.50;107225;1279;95932;-79
2022/07/09 10:44:41;;;;;;;12.60;1.40;;;;;;;29.99;28.56;100261.13;107184;1278;138784;-78
2022/07/09 10:47:13;;;;;;;3.10;1.00;;;;;;;29.68;28.41;100258.03;107379;1277;112514;-78
2022/07/09 10:49:46;;;;;;;2.80;1.10;;;;;;;29.41;29.24;100261.73;107109;1279;138210;-78
2022/07/09 10:52:19;;;;;;;3.30;1.10;;;;;;;29.17;29.24;100260.52;107320;1279;108895;-78
2022/07/09 10:54:52;;;;;;;4.10;1.60;;;;;;;28.82;29.54;100259.15;107138;1278;138370;-78
2022/07/09 10:57:24;;;;;;;3.20;1.30;;;;;;;28.65;29.79;100259.88;107314;1278;95985;-78
2022/07/09 10:59:57;;;;;;;4.00;1.10;;;;;;;28.60;30.07;100255.92;107339;1279;112770;-78
2022/07/09 11:02:29;;;;;;;2.00;0.80;;;;;;;28.54;30.10;100254.61;106325;1279;138496;-79
2022/07/09 11:05:01;;;;;;;6.20;1.00;;;;;;;28.39;29.93;100257.32;105915;1279;108950;-77
2022/07/09 11:07:35;;;;;;;6.70;1.20;;;;;;;28.18;30.42;100257.42;107217;1278;138223;-78
2022/07/09 11:10:19;;;;;;;4.60;1.10;;;;;;;27.87;30.71;100251.38;107337;1279;95989;-78
2022/07/09 11:12:51;;;;;;;4.40;1.40;;;;;;;27.27;31.14;100255.40;107175;1279;138279;-76
2022/07/09 11:15:26;;;;;;;4.80;1.10;;;;;;;26.73;31.72;100259.08;107012;1280;109148;-77
2022/07/09 11:18:01;;;;;;;4.40;1.20;;;;;;;26.38;31.88;100254.15;105812;1279;108766;-77
2022/07/09 11:20:40;;;;;;;4.70;1.60;;;;;;;26.27;31.97;100255.56;106345;1279;138937;-78
2022/07/09 11:23:13;;;;;;;4.60;1.10;;;;;;;26.16;32.55;100257.92;106031;1279;97849;-78
2022/07/09 11:25:48;;;;;;;3.20;1.20;;;;;;;25.99;32.37;100256.89;106786;1279;138478;-77
2022/07/09 11:28:28;;;;;;;2.70;1.30;;;;;;;25.75;32.42;100261.87;106416;1279;108307;-77
2022/07/09 11:31:05;;;;;;;5.40;1.30;;;;;;;25.60;32.81;100261.54;105672;1279;138222;-78
2022/07/09 11:36:38;;;;;;;5.10;1.30;;;;;;;25.57;33.58;100250.55;106790;1279;96122;-77
2022/07/09 11:39:11;;;;;;;3.30;1.20;;;;;;;25.86;33.85;100252.87;107319;1279;111603;-78
2022/07/09 11:41:44;;;;;;;4.10;1.10;;;;;;;26.02;32.91;100244.16;106761;1279;109270;-77